createdAt,value
2019-01-09T00:00:52.949Z,3.50
2019-01-09T00:03:19.112Z,3.50
2019-01-09T00:05:45.329Z,3.50
2019-01-09T00:08:11.520Z,3.50
2019-01-09T00:10:37.783Z,3.50
2019-01-09T00:13:04.068Z,3.50
2019-01-09T00:15:30.236Z,3.50
2019-01-09T00:17:56.372Z,3.60
2019-01-09T00:20:22.524Z,3.50
2019-01-09T00:22:48.645Z,3.50
2019-01-09T00:25:14.887Z,3.40
2019-01-09T00:27:41.119Z,3.40
2019-01-09T00:30:07.940Z,3.40
2019-01-09T00:32:34.194Z,3.30
2019-01-09T00:35:00.598Z,3.30
2019-01-09T00:37:26.840Z,3.20
2019-01-09T00:39:53.292Z,3.20
2019-01-09T00:42:19.796Z,3.10
2019-01-09T00:44:46.322Z,3.10
2019-01-09T00:47:12.537Z,3.10
2019-01-09T00:49:38.920Z,3.10
2019-01-09T00:52:05.268Z,3.10
2019-01-09T00:54:31.558Z,3.10
2019-01-09T00:56:57.754Z,3.10
2019-01-09T00:59:24.252Z,3.20
2019-01-09T01:02:00.146Z,3.20
2019-01-09T01:04:30.226Z,3.10
2019-01-09T01:07:06.178Z,3.20
2019-01-09T01:09:50.894Z,3.20
2019-01-09T01:12:41.994Z,3.20
2019-01-09T01:15:46.067Z,3.20
2019-01-09T01:18:36.995Z,3.20
2019-01-09T01:21:07.065Z,3.20
2019-01-09T01:24:12.071Z,3.20
2019-01-09T01:26:51.129Z,3.30
2019-01-09T01:29:51.563Z,3.20
2019-01-09T01:32:43.894Z,3.20
2019-01-09T01:35:36.719Z,3.10
2019-01-09T01:38:38.962Z,3.10
2019-01-09T01:41:20.870Z,3.10
2019-01-09T01:43:53.563Z,3.20
2019-01-09T01:46:52.387Z,3.10
2019-01-09T01:49:28.048Z,3.10
2019-01-09T01:52:12.980Z,3.20
2019-01-09T01:55:00.779Z,3.20
2019-01-09T01:57:36.388Z,3.10
2019-01-09T02:00:14.998Z,3.10
2019-01-09T02:02:50.975Z,3.00
2019-01-09T02:05:20.901Z,3.00
2019-01-09T02:08:11.749Z,2.90
2019-01-09T02:10:58.479Z,2.90
2019-01-09T02:13:50.850Z,2.80
2019-01-09T02:16:40.476Z,2.80
2019-01-09T02:19:19.729Z,2.80
2019-01-09T02:21:49.633Z,2.80
2019-01-09T02:24:22.545Z,2.70
2019-01-09T02:26:58.360Z,2.70
2019-01-09T02:29:31.077Z,2.60
2019-01-09T02:32:09.993Z,2.70
2019-01-09T02:34:36.230Z,2.70
2019-01-09T02:37:02.547Z,2.70
2019-01-09T02:39:28.646Z,2.70
2019-01-09T02:41:54.774Z,2.80
2019-01-09T02:44:20.971Z,2.70
2019-01-09T02:46:47.147Z,2.70
2019-01-09T02:49:13.274Z,2.70
2019-01-09T02:51:39.491Z,2.70
2019-01-09T02:54:05.627Z,2.70
2019-01-09T02:56:31.839Z,2.70
2019-01-09T02:58:57.924Z,2.70
2019-01-09T03:01:24.002Z,2.70
2019-01-09T03:03:50.419Z,2.70
2019-01-09T03:06:22.898Z,2.70
2019-01-09T03:08:44.582Z,2.80
2019-01-09T03:11:10.925Z,2.80
2019-01-09T03:13:37.155Z,2.80
2019-01-09T03:16:03.317Z,2.80
2019-01-09T03:18:29.445Z,2.80
2019-01-09T03:20:55.572Z,2.80
2019-01-09T03:23:21.706Z,2.80
2019-01-09T03:25:47.902Z,2.80
2019-01-09T03:28:14.031Z,2.70
2019-01-09T03:30:40.477Z,2.80
2019-01-09T03:33:06.659Z,2.80
2019-01-09T03:35:32.894Z,2.80
2019-01-09T03:37:59.008Z,2.80
2019-01-09T03:40:25.256Z,2.80
2019-01-09T03:42:51.570Z,2.80
2019-01-09T03:45:17.859Z,2.70
2019-01-09T03:47:44.138Z,2.80
2019-01-09T03:50:10.360Z,2.70
2019-01-09T03:52:36.465Z,2.70
2019-01-09T03:55:04.116Z,2.80
2019-01-09T03:57:30.387Z,2.70
2019-01-09T03:59:56.527Z,2.70
2019-01-09T04:02:22.757Z,2.70
2019-01-09T04:04:48.950Z,2.60
2019-01-09T04:07:15.071Z,2.70
2019-01-09T04:09:41.394Z,2.70
2019-01-09T04:12:07.480Z,2.70
2019-01-09T04:14:33.608Z,2.50
2019-01-09T04:16:59.735Z,2.50
2019-01-09T04:19:25.874Z,2.30
2019-01-09T04:21:51.999Z,2.20
2019-01-09T04:24:18.090Z,2.10
2019-01-09T04:26:44.217Z,2.00
2019-01-09T04:29:10.422Z,2.00
2019-01-09T04:31:36.497Z,1.80
2019-01-09T04:34:02.623Z,1.80
2019-01-09T04:36:28.722Z,1.80
2019-01-09T04:38:54.953Z,1.80
2019-01-09T04:41:21.074Z,1.70
2019-01-09T04:43:47.246Z,1.70
2019-01-09T04:46:13.323Z,1.60
2019-01-09T04:48:39.417Z,1.60
2019-01-09T04:51:05.575Z,1.50
2019-01-09T04:53:31.738Z,1.50
2019-01-09T04:55:57.824Z,1.50
2019-01-09T04:58:23.896Z,1.50
2019-01-09T05:00:50.042Z,1.40
2019-01-09T05:03:16.311Z,1.40
2019-01-09T05:05:42.444Z,1.40
2019-01-09T05:08:08.526Z,1.30
2019-01-09T05:10:34.669Z,1.40
2019-01-09T05:13:00.937Z,1.40
2019-01-09T05:15:27.128Z,1.50
2019-01-09T05:17:53.291Z,1.50
2019-01-09T05:20:19.398Z,1.50
2019-01-09T05:22:45.490Z,1.50
2019-01-09T05:25:11.608Z,1.60
2019-01-09T05:27:40.047Z,1.60
2019-01-09T05:30:06.531Z,1.60
2019-01-09T05:32:32.631Z,1.60
2019-01-09T05:34:58.703Z,1.70
2019-01-09T05:37:24.796Z,1.70
2019-01-09T05:39:51.003Z,1.70
2019-01-09T05:42:17.239Z,1.70
2019-01-09T05:44:43.417Z,1.70
2019-01-09T05:47:09.640Z,1.70
2019-01-09T05:49:36.396Z,1.80
2019-01-09T05:52:02.618Z,1.70
2019-01-09T05:54:28.766Z,1.80
2019-01-09T05:56:54.883Z,1.80
2019-01-09T05:59:21.001Z,1.80
2019-01-09T06:01:47.117Z,1.80
2019-01-09T06:04:13.215Z,1.80
2019-01-09T06:06:39.301Z,1.90
2019-01-09T06:09:05.629Z,1.90
2019-01-09T06:11:31.755Z,1.90
2019-01-09T06:13:57.905Z,1.90
2019-01-09T06:16:24.281Z,2.00
2019-01-09T06:18:50.987Z,2.00
2019-01-09T06:21:17.062Z,2.00
2019-01-09T06:23:43.179Z,1.90
2019-01-09T06:26:09.293Z,1.90
2019-01-09T06:28:35.366Z,1.90
2019-01-09T06:31:01.503Z,1.90
2019-01-09T06:33:27.825Z,2.00
2019-01-09T06:35:53.996Z,1.90
2019-01-09T06:38:20.075Z,1.90
2019-01-09T06:40:46.251Z,1.90
2019-01-09T06:43:12.436Z,1.90
2019-01-09T06:45:38.573Z,2.00
2019-01-09T06:48:04.689Z,2.00
2019-01-09T06:50:31.027Z,2.00
2019-01-09T06:52:57.160Z,2.00
2019-01-09T06:55:23.280Z,2.00
2019-01-09T06:57:49.352Z,2.10
2019-01-09T07:00:15.525Z,2.00
2019-01-09T07:02:41.598Z,2.00
2019-01-09T07:05:07.842Z,2.00
2019-01-09T07:07:36.140Z,2.00
2019-01-09T07:10:06.905Z,2.00
2019-01-09T07:12:33.017Z,2.00
2019-01-09T07:14:59.145Z,2.00
2019-01-09T07:17:25.220Z,1.90
2019-01-09T07:19:51.364Z,1.90
2019-01-09T07:22:17.449Z,1.90
2019-01-09T07:24:43.554Z,2.00
2019-01-09T07:27:09.664Z,1.90
2019-01-09T07:29:35.762Z,1.90
2019-01-09T07:32:01.878Z,1.90
2019-01-09T07:34:27.983Z,1.90
2019-01-09T07:36:54.134Z,1.80
2019-01-09T07:39:20.304Z,1.90
2019-01-09T07:41:46.425Z,1.80
2019-01-09T07:44:12.653Z,1.80
2019-01-09T07:46:39.697Z,1.80
2019-01-09T07:49:05.990Z,1.80
2019-01-09T07:51:32.594Z,1.90
2019-01-09T07:53:58.698Z,1.90
2019-01-09T07:56:24.827Z,1.90
2019-01-09T07:58:51.259Z,1.90
2019-01-09T08:01:17.375Z,1.90
2019-01-09T08:03:43.498Z,1.90
2019-01-09T08:06:09.788Z,1.90
2019-01-09T08:08:35.859Z,2.00
2019-01-09T08:11:02.080Z,2.00
2019-01-09T08:13:28.180Z,1.90
2019-01-09T08:15:54.360Z,1.80
2019-01-09T08:18:20.667Z,1.90
2019-01-09T08:20:46.822Z,1.80
2019-01-09T08:23:13.356Z,1.90
2019-01-09T08:25:39.558Z,1.90
2019-01-09T08:28:05.674Z,1.90
2019-01-09T08:30:31.760Z,1.90
2019-01-09T08:32:57.848Z,1.90
2019-01-09T08:35:23.990Z,2.00
2019-01-09T08:37:50.298Z,1.90
2019-01-09T08:40:16.484Z,2.00
2019-01-09T08:42:42.667Z,1.90
2019-01-09T08:45:08.864Z,2.00
2019-01-09T08:47:34.936Z,2.00
2019-01-09T08:50:01.086Z,2.00
2019-01-09T08:52:27.342Z,2.00
2019-01-09T08:54:53.488Z,1.90
2019-01-09T08:57:19.743Z,2.00
2019-01-09T08:59:45.936Z,2.00
2019-01-09T09:02:12.211Z,2.00
2019-01-09T09:04:38.382Z,2.00
2019-01-09T09:07:04.657Z,2.00
2019-01-09T09:09:32.374Z,2.00
2019-01-09T09:11:58.498Z,2.10
2019-01-09T09:14:24.651Z,2.10
2019-01-09T09:16:50.809Z,2.10
2019-01-09T09:19:17.057Z,2.00
2019-01-09T09:21:43.235Z,2.00
2019-01-09T09:24:09.366Z,2.00
2019-01-09T09:26:35.486Z,2.10
2019-01-09T09:29:01.569Z,2.20
2019-01-09T09:31:27.710Z,2.10
2019-01-09T09:33:53.833Z,2.10
2019-01-09T09:36:19.985Z,2.10
2019-01-09T09:38:46.119Z,2.10
2019-01-09T09:41:12.306Z,2.00
2019-01-09T09:43:38.469Z,2.00
2019-01-09T09:46:04.622Z,2.20
2019-01-09T09:48:30.703Z,2.20
2019-01-09T09:50:56.851Z,2.20
2019-01-09T09:53:22.971Z,2.20
2019-01-09T09:55:49.223Z,2.20
2019-01-09T09:58:15.330Z,2.30
2019-01-09T10:00:41.415Z,2.30
2019-01-09T10:03:07.490Z,2.30
2019-01-09T10:05:33.788Z,2.20
2019-01-09T10:07:59.879Z,2.30
2019-01-09T10:10:25.968Z,2.20
2019-01-09T10:12:52.055Z,2.30
2019-01-09T10:15:18.244Z,2.30
2019-01-09T10:17:44.439Z,2.40
2019-01-09T10:20:15.962Z,2.30
2019-01-09T10:22:42.448Z,2.40
2019-01-09T10:25:08.892Z,2.40
2019-01-09T10:27:34.975Z,2.40
2019-01-09T10:30:01.920Z,2.40
2019-01-09T10:32:28.102Z,2.30
2019-01-09T10:34:54.236Z,2.30
2019-01-09T10:37:20.357Z,2.30
2019-01-09T10:39:46.502Z,2.20
2019-01-09T10:42:12.620Z,2.20
2019-01-09T10:44:38.702Z,2.20
2019-01-09T10:47:05.793Z,2.30
2019-01-09T10:49:31.947Z,2.30
2019-01-09T10:51:58.261Z,2.30
2019-01-09T10:54:24.428Z,2.30
2019-01-09T10:56:50.733Z,2.40
2019-01-09T10:59:16.904Z,2.40
2019-01-09T11:01:47.247Z,2.50
2019-01-09T11:04:16.979Z,2.40
2019-01-09T11:06:43.226Z,2.30
2019-01-09T11:09:09.408Z,2.30
2019-01-09T11:11:35.555Z,2.30
2019-01-09T11:14:02.082Z,2.40
2019-01-09T11:16:28.283Z,2.30
2019-01-09T11:18:54.368Z,2.30
2019-01-09T11:21:20.509Z,2.40
2019-01-09T11:23:46.718Z,2.40
2019-01-09T11:26:12.915Z,2.40
2019-01-09T11:28:38.988Z,2.40
2019-01-09T11:31:05.099Z,2.50
2019-01-09T11:33:31.231Z,2.50
2019-01-09T11:35:57.427Z,2.50
2019-01-09T11:38:23.517Z,2.40
2019-01-09T11:40:49.903Z,2.40
2019-01-09T11:43:16.060Z,2.40
2019-01-09T11:45:42.272Z,2.50
2019-01-09T11:48:08.493Z,2.40
2019-01-09T11:50:34.576Z,2.40
2019-01-09T11:53:00.657Z,2.50
2019-01-09T11:55:26.746Z,2.50
2019-01-09T11:57:52.887Z,2.50
2019-01-09T12:00:25.086Z,2.50
2019-01-09T12:02:51.323Z,2.50
2019-01-09T12:05:17.623Z,2.60
2019-01-09T12:07:43.920Z,2.70
2019-01-09T12:10:13.345Z,2.70
2019-01-09T12:12:39.578Z,2.70
2019-01-09T12:15:08.258Z,2.70
2019-01-09T12:17:34.350Z,2.60
2019-01-09T12:20:00.414Z,2.70
2019-01-09T12:22:26.652Z,2.60
2019-01-09T12:24:52.728Z,2.50
2019-01-09T12:27:18.818Z,2.50
2019-01-09T12:29:44.946Z,2.50
2019-01-09T12:32:11.075Z,2.60
2019-01-09T12:34:37.161Z,2.60
2019-01-09T12:37:03.287Z,2.50
2019-01-09T12:39:29.462Z,2.50
2019-01-09T12:41:55.628Z,2.60
2019-01-09T12:44:21.872Z,2.50
2019-01-09T12:46:48.104Z,2.50
2019-01-09T12:49:14.344Z,2.30
2019-01-09T12:51:40.421Z,2.20
2019-01-09T12:54:06.532Z,2.20
2019-01-09T12:56:32.588Z,2.30
2019-01-09T12:58:58.725Z,2.20
2019-01-09T13:01:24.883Z,2.10
2019-01-09T13:03:51.082Z,2.10
2019-01-09T13:06:17.210Z,2.10
2019-01-09T13:08:43.440Z,2.10
2019-01-09T13:11:09.626Z,2.10
2019-01-09T13:13:35.760Z,2.10
2019-01-09T13:16:01.940Z,2.10
2019-01-09T13:18:28.149Z,2.00
2019-01-09T13:20:54.375Z,2.00
2019-01-09T13:23:20.511Z,1.90
2019-01-09T13:25:46.713Z,1.90
2019-01-09T13:28:12.854Z,1.80
2019-01-09T13:30:38.915Z,1.80
2019-01-09T13:33:05.245Z,1.90
2019-01-09T13:35:31.335Z,1.90
2019-01-09T13:37:57.430Z,1.90
2019-01-09T13:40:23.501Z,2.00
2019-01-09T13:42:49.705Z,1.90
2019-01-09T13:45:18.708Z,1.80
2019-01-09T13:47:45.153Z,1.80
2019-01-09T13:50:13.577Z,1.70
2019-01-09T13:52:39.890Z,1.70
2019-01-09T13:55:08.613Z,1.80
2019-01-09T13:57:34.877Z,1.70
2019-01-09T14:00:01.455Z,1.80
2019-01-09T14:02:28.027Z,1.70
2019-01-09T14:04:54.253Z,1.70
2019-01-09T14:07:20.675Z,1.80
2019-01-09T14:09:46.793Z,1.70
2019-01-09T14:12:13.043Z,1.80
2019-01-09T14:14:39.266Z,1.90
2019-01-09T14:17:05.358Z,1.90
2019-01-09T14:19:31.448Z,1.90
2019-01-09T14:21:57.567Z,2.00
2019-01-09T14:24:23.736Z,1.90
2019-01-09T14:26:49.923Z,1.80
2019-01-09T14:29:16.058Z,1.90
2019-01-09T14:31:42.126Z,1.90
2019-01-09T14:34:08.401Z,1.80
2019-01-09T14:36:34.527Z,1.80
2019-01-09T14:39:00.707Z,1.80
2019-01-09T14:41:26.853Z,1.70
2019-01-09T14:43:53.087Z,1.70
2019-01-09T14:46:19.254Z,1.70
2019-01-09T14:48:45.411Z,1.70
2019-01-09T14:51:11.472Z,1.70
2019-01-09T14:53:37.555Z,1.70
2019-01-09T14:56:03.983Z,1.70
2019-01-09T14:58:30.165Z,1.80
2019-01-09T15:00:56.297Z,1.70
2019-01-09T15:03:22.433Z,1.80
2019-01-09T15:05:48.507Z,1.80
2019-01-09T15:08:14.719Z,1.70
2019-01-09T15:10:40.967Z,1.70
2019-01-09T15:13:07.592Z,1.80
2019-01-09T15:15:33.790Z,1.80
2019-01-09T15:17:59.936Z,1.70
2019-01-09T15:20:26.194Z,1.70
2019-01-09T15:22:52.496Z,1.70
2019-01-09T15:25:18.867Z,1.70
2019-01-09T15:27:45.294Z,1.70
2019-01-09T15:30:19.901Z,1.70
2019-01-09T15:32:46.286Z,1.70
2019-01-09T15:35:12.758Z,1.70
2019-01-09T15:37:39.067Z,1.70
2019-01-09T15:40:11.566Z,1.70
2019-01-09T15:42:37.918Z,1.60
2019-01-09T15:45:07.681Z,1.70
2019-01-09T15:47:33.933Z,1.60
2019-01-09T15:50:00.192Z,1.60
2019-01-09T15:52:26.543Z,1.50
2019-01-09T15:54:52.640Z,1.50
2019-01-09T15:57:18.771Z,1.60
2019-01-09T15:59:44.868Z,1.50
2019-01-09T16:02:11.162Z,1.50
2019-01-09T16:04:37.335Z,1.40
2019-01-09T16:07:03.977Z,1.40
2019-01-09T16:09:30.216Z,1.50
2019-01-09T16:11:56.480Z,1.50
2019-01-09T16:14:22.790Z,1.50
2019-01-09T16:16:48.978Z,1.60
2019-01-09T16:19:15.089Z,1.50
2019-01-09T16:21:41.195Z,1.50
2019-01-09T16:24:07.452Z,1.60
2019-01-09T16:26:33.565Z,1.50
2019-01-09T16:29:00.049Z,1.50
2019-01-09T16:31:26.236Z,1.50
2019-01-09T16:33:52.395Z,1.50
2019-01-09T16:36:18.586Z,1.50
2019-01-09T16:38:44.718Z,1.50
2019-01-09T16:41:11.052Z,1.50
2019-01-09T16:43:37.250Z,1.50
2019-01-09T16:46:04.969Z,1.50
2019-01-09T16:48:31.201Z,1.50
2019-01-09T16:50:57.380Z,1.50
2019-01-09T16:53:23.651Z,1.50
2019-01-09T16:55:50.007Z,1.50
2019-01-09T16:58:16.195Z,1.50
2019-01-09T17:00:43.394Z,1.50
2019-01-09T17:03:09.554Z,1.70
2019-01-09T17:05:36.343Z,1.60
2019-01-09T17:08:04.399Z,1.60
2019-01-09T17:10:32.566Z,1.60
2019-01-09T17:12:58.860Z,1.50
2019-01-09T17:15:25.408Z,1.50
2019-01-09T17:17:51.595Z,1.50
2019-01-09T17:20:23.359Z,1.50
2019-01-09T17:22:49.722Z,1.50
2019-01-09T17:25:16.007Z,1.40
2019-01-09T17:27:42.566Z,1.30
2019-01-09T17:30:18.242Z,1.40
2019-01-09T17:32:44.531Z,1.40
2019-01-09T17:35:11.066Z,1.50
2019-01-09T17:37:37.258Z,1.50
2019-01-09T17:40:07.239Z,1.50
2019-01-09T17:42:33.687Z,1.50
2019-01-09T17:45:00.299Z,1.50
2019-01-09T17:47:26.477Z,1.50
2019-01-09T17:49:52.622Z,1.50
2019-01-09T17:52:18.719Z,1.50
2019-01-09T17:54:44.826Z,1.50
2019-01-09T17:57:11.019Z,1.50
2019-01-09T17:59:37.561Z,1.50
2019-01-09T18:02:04.129Z,1.60
2019-01-09T18:04:30.414Z,1.60
2019-01-09T18:06:56.725Z,1.60
2019-01-09T18:09:23.112Z,1.70
2019-01-09T18:11:49.347Z,1.70
2019-01-09T18:14:15.736Z,1.70
2019-01-09T18:16:41.862Z,1.70
2019-01-09T18:19:08.181Z,1.60
2019-01-09T18:21:34.689Z,1.60
2019-01-09T18:24:01.245Z,1.60
2019-01-09T18:26:27.571Z,1.70
2019-01-09T18:28:53.779Z,1.70
2019-01-09T18:31:32.711Z,1.60
2019-01-09T18:34:01.467Z,1.60
2019-01-09T18:36:31.449Z,1.60
2019-01-09T18:39:07.745Z,1.50
2019-01-09T18:41:59.092Z,1.50
2019-01-09T18:44:29.221Z,1.60
2019-01-09T18:47:08.053Z,1.70
2019-01-09T18:49:53.474Z,1.60
2019-01-09T18:52:31.941Z,1.70
2019-01-09T18:54:58.147Z,1.60
2019-01-09T18:57:24.249Z,1.60
2019-01-09T18:59:50.465Z,1.70
2019-01-09T19:02:26.227Z,1.70
2019-01-09T19:04:52.568Z,1.60
2019-01-09T19:07:19.131Z,1.70
2019-01-09T19:09:45.453Z,1.70
2019-01-09T19:12:11.694Z,1.70
2019-01-09T19:14:37.972Z,1.70
2019-01-09T19:17:04.758Z,1.70
2019-01-09T19:19:31.463Z,1.60
2019-01-09T19:21:57.999Z,1.60
2019-01-09T19:24:26.131Z,1.50
2019-01-09T19:26:52.340Z,1.60
2019-01-09T19:29:18.683Z,1.60
2019-01-09T19:31:45.370Z,1.60
2019-01-09T19:34:11.878Z,1.60
2019-01-09T19:36:38.137Z,1.50
2019-01-09T19:39:07.261Z,1.60
2019-01-09T19:41:33.455Z,1.60
2019-01-09T19:43:59.601Z,1.60
2019-01-09T19:46:25.759Z,1.60
2019-01-09T19:48:52.082Z,1.50
2019-01-09T19:51:18.505Z,1.50
2019-01-09T19:53:44.919Z,1.60
2019-01-09T19:56:11.261Z,1.50
2019-01-09T19:58:37.472Z,1.50
2019-01-09T20:01:03.636Z,1.60
2019-01-09T20:03:29.774Z,1.60
2019-01-09T20:05:55.980Z,1.60
2019-01-09T20:08:22.396Z,1.70
2019-01-09T20:10:48.746Z,1.70
2019-01-09T20:13:15.066Z,1.70
2019-01-09T20:15:41.269Z,1.70
2019-01-09T20:18:07.802Z,1.70
2019-01-09T20:20:34.063Z,1.70
2019-01-09T20:23:00.301Z,1.80
2019-01-09T20:25:26.634Z,1.70
2019-01-09T20:27:52.840Z,1.70
2019-01-09T20:30:24.752Z,1.60
2019-01-09T20:32:50.965Z,1.70
2019-01-09T20:35:17.510Z,1.60
2019-01-09T20:37:44.092Z,1.60
2019-01-09T20:40:12.852Z,1.70
2019-01-09T20:42:39.108Z,1.60
2019-01-09T20:45:08.778Z,1.70
2019-01-09T20:47:35.314Z,1.70
2019-01-09T20:50:03.796Z,1.70
2019-01-09T20:52:30.124Z,1.70
2019-01-09T20:54:56.487Z,1.60
2019-01-09T20:57:22.859Z,1.60
2019-01-09T20:59:48.998Z,1.60
2019-01-09T21:02:15.468Z,1.50
2019-01-09T21:04:42.038Z,1.60
2019-01-09T21:07:08.439Z,1.50
2019-01-09T21:09:34.726Z,1.50
2019-01-09T21:12:01.097Z,1.50
2019-01-09T21:14:27.228Z,1.50
2019-01-09T21:16:53.534Z,1.60
2019-01-09T21:19:19.936Z,1.50
2019-01-09T21:21:46.230Z,1.60
2019-01-09T21:24:12.443Z,1.60
2019-01-09T21:26:38.557Z,1.60
2019-01-09T21:29:04.758Z,1.60
2019-01-09T21:31:30.997Z,1.50
2019-01-09T21:33:57.198Z,1.60
2019-01-09T21:36:23.314Z,1.60
2019-01-09T21:38:49.676Z,1.60
2019-01-09T21:41:15.917Z,1.50
2019-01-09T21:43:42.230Z,1.50
2019-01-09T21:46:08.729Z,1.50
2019-01-09T21:48:34.883Z,1.50
2019-01-09T21:51:01.722Z,1.40
2019-01-09T21:53:27.859Z,1.50
2019-01-09T21:55:53.964Z,1.40
2019-01-09T21:58:20.111Z,1.40
2019-01-09T22:00:46.303Z,1.40
2019-01-09T22:03:12.825Z,1.50
2019-01-09T22:05:39.166Z,1.50
2019-01-09T22:08:05.439Z,1.50
2019-01-09T22:10:32.625Z,1.50
2019-01-09T22:12:59.271Z,1.50
2019-01-09T22:15:25.784Z,1.50
2019-01-09T22:17:52.022Z,1.50
2019-01-09T22:20:18.200Z,1.50
2019-01-09T22:22:44.743Z,1.50
2019-01-09T22:25:11.765Z,1.50
2019-01-09T22:27:38.250Z,1.40
2019-01-09T22:30:22.131Z,1.50
2019-01-09T22:32:48.446Z,1.50
2019-01-09T22:35:14.840Z,1.50
2019-01-09T22:37:48.503Z,1.50
2019-01-09T22:40:16.843Z,1.60
2019-01-09T22:42:43.275Z,1.60
2019-01-09T22:45:10.603Z,1.60
2019-01-09T22:47:36.892Z,1.50
2019-01-09T22:50:06.462Z,1.60
2019-01-09T22:52:35.420Z,1.50
2019-01-09T22:55:01.525Z,1.60
2019-01-09T22:57:27.659Z,1.60
2019-01-09T22:59:53.793Z,1.60
2019-01-09T23:02:21.409Z,1.60
2019-01-09T23:04:47.813Z,1.60
2019-01-09T23:07:14.163Z,1.60
2019-01-09T23:09:40.346Z,1.70
2019-01-09T23:12:06.470Z,1.70
2019-01-09T23:14:32.734Z,1.60
2019-01-09T23:16:59.027Z,1.60
2019-01-09T23:19:25.266Z,1.60
2019-01-09T23:21:51.675Z,1.70
2019-01-09T23:24:17.866Z,1.70
2019-01-09T23:26:44.041Z,1.70
2019-01-09T23:29:10.425Z,1.70
2019-01-09T23:31:36.477Z,1.60
2019-01-09T23:34:03.130Z,1.60
2019-01-09T23:36:29.323Z,1.60
2019-01-09T23:38:55.551Z,1.60
2019-01-09T23:41:21.846Z,1.60
2019-01-09T23:43:48.394Z,1.60
2019-01-09T23:46:14.585Z,1.60
2019-01-09T23:48:40.893Z,1.60
2019-01-09T23:51:07.007Z,1.60
2019-01-09T23:53:33.136Z,1.60
2019-01-09T23:55:59.209Z,1.60
2019-01-09T23:58:25.332Z,1.50
